Time;durP1;ratioP1;P1;durP2;ratioP2;P2;SDS_P1;SDS_P2;PMS_P1;PMS_P2;Temp;Humidity;BMP_temperature;BMP_pressure;BME280_temperature;BME280_humidity;BME280_pressure;Samples;Min_cycle;Max_cycle;Signal;HPM_P1;HPM_P2
2023/04/19 00:04:37;;;;;;;;;;;21.60;58.80;;;;;;4748149;55;20290;-26
2023/04/19 00:09:38;;;;;;;;;;;21.60;58.80;;;;;;4901942;55;20077;-27
2023/04/19 00:14:39;;;;;;;;;;;21.60;58.80;;;;;;4769196;55;20064;-27
2023/04/19 00:19:40;;;;;;;;;;;21.60;58.80;;;;;;4803240;55;20056;-27
2023/04/19 00:24:40;;;;;;;;;;;21.60;58.80;;;;;;4773984;55;20073;-26
2023/04/19 00:29:41;;;;;;;;;;;21.60;58.80;;;;;;4867389;55;20053;-28
2023/04/19 00:34:42;;;;;;;;;;;21.60;58.80;;;;;;4814066;54;20068;-29
2023/04/19 00:39:42;;;;;;;;;;;21.60;58.90;;;;;;4801135;55;20052;-27
2023/04/19 00:44:43;;;;;;;;;;;21.60;58.80;;;;;;5073547;55;20100;-27
2023/04/19 00:49:44;;;;;;;;;;;21.60;58.80;;;;;;4746482;55;20100;-27
2023/04/19 00:54:44;;;;;;;;;;;21.60;58.80;;;;;;4759828;55;20339;-27
2023/04/19 00:59:45;;;;;;;;;;;21.60;58.80;;;;;;4877837;55;20163;-26
2023/04/19 01:04:46;;;;;;;;;;;21.60;58.80;;;;;;4749234;55;20120;-28
2023/04/19 01:09:46;;;;;;;;;;;21.60;58.80;;;;;;4776517;55;20061;-34
2023/04/19 01:14:47;;;;;;;;;;;21.60;58.80;;;;;;4746412;55;20084;-27
2023/04/19 01:19:48;;;;;;;;;;;21.60;58.80;;;;;;4751128;55;20310;-28
2023/04/19 01:24:48;;;;;;;;;;;21.60;58.80;;;;;;4836307;55;20060;-29
2023/04/19 01:29:49;;;;;;;;;;;21.60;58.80;;;;;;4856222;55;20069;-32
2023/04/19 01:34:51;;;;;;;;;;;21.60;58.90;;;;;;4786722;55;20295;-32
2023/04/19 01:39:51;;;;;;;;;;;21.60;58.80;;;;;;4800713;55;20064;-29
2023/04/19 01:44:52;;;;;;;;;;;21.60;58.80;;;;;;4755612;55;20178;-27
2023/04/19 01:49:52;;;;;;;;;;;21.60;58.80;;;;;;4753293;55;20056;-28
2023/04/19 01:54:53;;;;;;;;;;;21.60;58.80;;;;;;4746123;58;20124;-29
2023/04/19 01:59:54;;;;;;;;;;;21.60;58.80;;;;;;4749516;55;20374;-28
2023/04/19 02:04:54;;;;;;;;;;;21.60;58.80;;;;;;4771399;55;20192;-31
2023/04/19 02:09:55;;;;;;;;;;;21.60;58.80;;;;;;4858745;55;20072;-28
2023/04/19 02:14:56;;;;;;;;;;;21.60;58.80;;;;;;4746651;58;20099;-27
2023/04/19 02:19:57;;;;;;;;;;;21.60;58.80;;;;;;4746819;58;20282;-28
2023/04/19 02:24:58;;;;;;;;;;;21.60;58.70;;;;;;4918189;55;20156;-28
2023/04/19 02:29:58;;;;;;;;;;;21.60;58.70;;;;;;4786712;55;20355;-28
2023/04/19 02:34:59;;;;;;;;;;;21.60;58.70;;;;;;4760835;55;20084;-29
2023/04/19 02:39:59;;;;;;;;;;;21.60;58.80;;;;;;4752909;55;20291;-28
2023/04/19 02:45:00;;;;;;;;;;;21.60;58.80;;;;;;4771372;55;20533;-28
2023/04/19 02:50:01;;;;;;;;;;;21.60;58.70;;;;;;4766872;55;20080;-30
2023/04/19 02:55:03;;;;;;;;;;;21.60;58.80;;;;;;4762634;55;20101;-28
2023/04/19 03:00:05;;;;;;;;;;;21.60;58.70;;;;;;4783820;55;20402;-31
2023/04/19 03:05:06;;;;;;;;;;;21.60;58.80;;;;;;4746736;55;20755;-28
2023/04/19 03:10:07;;;;;;;;;;;21.60;58.80;;;;;;4755644;55;20084;-28
2023/04/19 03:15:08;;;;;;;;;;;21.60;58.80;;;;;;4772235;55;20144;-33
2023/04/19 03:20:11;;;;;;;;;;;21.60;58.80;;;;;;4757052;55;20092;-32
2023/04/19 03:25:12;;;;;;;;;;;21.60;58.80;;;;;;4807225;55;20065;-29
2023/04/19 03:30:13;;;;;;;;;;;21.60;58.80;;;;;;4783261;55;20345;-28
2023/04/19 03:35:13;;;;;;;;;;;21.60;58.80;;;;;;4793395;54;20120;-32
2023/04/19 03:40:14;;;;;;;;;;;21.60;58.90;;;;;;4938079;55;20048;-32
2023/04/19 03:45:15;;;;;;;;;;;21.60;59.00;;;;;;4746173;58;20132;-30
2023/04/19 03:50:15;;;;;;;;;;;21.60;59.10;;;;;;4790047;55;20092;-29
2023/04/19 03:55:16;;;;;;;;;;;21.60;59.10;;;;;;4746461;58;20262;-29
2023/04/19 04:00:17;;;;;;;;;;;21.60;59.10;;;;;;4774261;55;20283;-32
2023/04/19 04:05:17;;;;;;;;;;;21.60;59.10;;;;;;4804811;55;20080;-29
2023/04/19 04:10:18;;;;;;;;;;;21.60;59.10;;;;;;4765063;55;20374;-28
2023/04/19 04:15:19;;;;;;;;;;;21.60;59.10;;;;;;4746699;55;20072;-29
2023/04/19 04:20:20;;;;;;;;;;;21.60;59.10;;;;;;4881491;55;20132;-30
2023/04/19 04:25:20;;;;;;;;;;;21.60;59.30;;;;;;4818936;55;20120;-31
2023/04/19 04:30:21;;;;;;;;;;;21.50;59.10;;;;;;4746182;58;20301;-29
2023/04/19 04:35:22;;;;;;;;;;;21.50;59.10;;;;;;4746497;58;20370;-28
2023/04/19 04:40:25;;;;;;;;;;;21.60;59.10;;;;;;4819029;55;20061;-28
2023/04/19 04:45:28;;;;;;;;;;;21.50;59.00;;;;;;4746165;58;20104;-29
2023/04/19 04:50:28;;;;;;;;;;;21.50;59.10;;;;;;4746557;58;20680;-26
2023/04/19 04:55:29;;;;;;;;;;;21.60;59.10;;;;;;4971446;55;20105;-29
2023/04/19 05:00:33;;;;;;;;;;;21.50;59.10;;;;;;4748335;55;20287;-33
2023/04/19 05:05:33;;;;;;;;;;;21.60;58.60;;;;;;4769027;55;20083;-29
2023/04/19 05:10:34;;;;;;;;;;;21.60;58.80;;;;;;4798586;55;20359;-27
2023/04/19 05:15:35;;;;;;;;;;;21.50;59.00;;;;;;4763748;55;20072;-29
2023/04/19 05:20:36;;;;;;;;;;;21.50;58.90;;;;;;4821149;55;20422;-25
2023/04/19 05:25:36;;;;;;;;;;;21.60;59.00;;;;;;4750887;55;20690;-29
2023/04/19 05:30:37;;;;;;;;;;;21.50;58.90;;;;;;4789865;55;20343;-30
2023/04/19 05:35:38;;;;;;;;;;;21.50;58.90;;;;;;4788392;55;20076;-31
2023/04/19 05:40:39;;;;;;;;;;;21.60;59.00;;;;;;4746736;55;20108;-31
2023/04/19 05:45:39;;;;;;;;;;;21.50;59.00;;;;;;4783205;55;20303;-30
2023/04/19 05:50:40;;;;;;;;;;;21.50;59.00;;;;;;4760680;55;20867;-27
2023/04/19 05:55:41;;;;;;;;;;;21.50;58.90;;;;;;4802451;55;20287;-30
2023/04/19 06:00:42;;;;;;;;;;;21.50;58.90;;;;;;4801361;55;20315;-28
2023/04/19 06:05:42;;;;;;;;;;;21.50;58.90;;;;;;4746327;58;20067;-27
2023/04/19 06:10:46;;;;;;;;;;;21.50;58.90;;;;;;4766209;55;20339;-27
2023/04/19 06:15:47;;;;;;;;;;;21.50;58.80;;;;;;4746615;58;20358;-28
2023/04/19 06:20:47;;;;;;;;;;;21.50;58.90;;;;;;4746400;58;20242;-30
2023/04/19 06:25:48;;;;;;;;;;;21.50;59.60;;;;;;4818408;55;20336;-29
2023/04/19 06:30:48;;;;;;;;;;;21.50;58.80;;;;;;4745922;58;20069;-25
2023/04/19 06:35:49;;;;;;;;;;;21.50;58.90;;;;;;4768193;55;20222;-27
2023/04/19 06:40:50;;;;;;;;;;;21.50;58.80;;;;;;4771123;55;20358;-26
2023/04/19 06:45:57;;;;;;;;;;;21.50;58.80;;;;;;4744404;58;20112;-27
2023/04/19 06:50:58;;;;;;;;;;;21.50;58.80;;;;;;4753082;55;20112;-28
2023/04/19 06:56:00;;;;;;;;;;;21.50;58.80;;;;;;4769796;55;20068;-29
2023/04/19 07:01:00;;;;;;;;;;;21.50;58.60;;;;;;4743766;55;20339;-30
2023/04/19 07:06:01;;;;;;;;;;;21.60;58.50;;;;;;4742444;58;20129;-27
2023/04/19 07:11:02;;;;;;;;;;;21.60;58.40;;;;;;4742866;58;20347;-30
2023/04/19 07:16:04;;;;;;;;;;;21.60;58.40;;;;;;4747708;55;20072;-29
2023/04/19 07:21:04;;;;;;;;;;;21.60;58.30;;;;;;4833400;55;20358;-32
2023/04/19 07:26:05;;;;;;;;;;;21.60;58.20;;;;;;4756727;55;20121;-30
2023/04/19 07:31:06;;;;;;;;;;;21.60;58.70;;;;;;4765833;55;20371;-28
2023/04/19 07:36:07;;;;;;;;;;;21.70;59.00;;;;;;4841912;55;20319;-28
2023/04/19 07:41:08;;;;;;;;;;;21.70;58.20;;;;;;4788537;55;20477;-30
2023/04/19 07:46:09;;;;;;;;;;;21.70;58.10;;;;;;4750001;55;20397;-32
2023/04/19 07:51:11;;;;;;;;;;;21.70;58.70;;;;;;4784884;55;20489;-28
2023/04/19 07:56:11;;;;;;;;;;;21.70;58.10;;;;;;4805283;55;20810;-32
2023/04/19 08:01:12;;;;;;;;;;;21.70;58.10;;;;;;4773276;55;20088;-33
2023/04/19 08:06:13;;;;;;;;;;;21.70;58.30;;;;;;4836221;55;20506;-32
2023/04/19 08:11:13;;;;;;;;;;;21.70;58.00;;;;;;4747917;55;20864;-29
2023/04/19 08:16:14;;;;;;;;;;;21.70;58.00;;;;;;4815942;55;20060;-27
2023/04/19 08:21:18;;;;;;;;;;;21.70;58.00;;;;;;4806666;55;20112;-27
2023/04/19 08:26:18;;;;;;;;;;;21.70;57.90;;;;;;4745789;57;20375;-32
2023/04/19 08:31:20;;;;;;;;;;;21.70;57.90;;;;;;4780510;55;20124;-27
2023/04/19 08:36:21;;;;;;;;;;;21.70;58.30;;;;;;4746772;58;20496;-30
2023/04/19 08:41:23;;;;;;;;;;;21.70;57.90;;;;;;4787828;55;20355;-32
2023/04/19 08:46:25;;;;;;;;;;;21.80;58.00;;;;;;4768467;55;20100;-29
2023/04/19 08:51:28;;;;;;;;;;;21.80;58.00;;;;;;4768737;55;20350;-27
2023/04/19 08:56:29;;;;;;;;;;;21.70;57.90;;;;;;4756226;55;20077;-30
2023/04/19 09:01:31;;;;;;;;;;;21.80;58.50;;;;;;4744346;58;20072;-23
2023/04/19 09:06:36;;;;;;;;;;;21.80;58.10;;;;;;4743856;55;20839;-27
2023/04/19 09:11:40;;;;;;;;;;;21.80;58.30;;;;;;4766397;55;20120;-28
2023/04/19 09:16:44;;;;;;;;;;;21.80;58.60;;;;;;4776502;55;20311;-26
2023/04/19 09:21:45;;;;;;;;;;;21.80;59.20;;;;;;4788767;55;20105;-26
2023/04/19 09:26:56;;;;;;;;;;;21.90;60.00;;;;;;4780787;55;20064;-29
2023/04/19 09:31:58;;;;;;;;;;;21.90;60.90;;;;;;4746907;55;20338;-26
2023/04/19 09:37:10;;;;;;;;;;;21.90;61.40;;;;;;4766533;55;20115;-26
2023/04/19 09:42:11;;;;;;;;;;;22.00;62.00;;;;;;4791990;55;20295;-29
2023/04/19 09:47:22;;;;;;;;;;;22.00;61.90;;;;;;4754457;55;20153;-25
2023/04/19 09:52:23;;;;;;;;;;;22.00;62.00;;;;;;4743942;55;20378;-27
2023/04/19 09:57:25;;;;;;;;;;;22.00;61.80;;;;;;4762030;55;20080;-24
2023/04/19 10:02:31;;;;;;;;;;;22.00;62.00;;;;;;4743561;58;20120;-28
2023/04/19 10:07:32;;;;;;;;;;;22.00;61.80;;;;;;4753317;55;20120;-26
2023/04/19 10:12:34;;;;;;;;;;;22.10;61.80;;;;;;4745079;55;20132;-27
2023/04/19 10:17:35;;;;;;;;;;;22.00;61.70;;;;;;4756756;55;20119;-28
2023/04/19 10:22:36;;;;;;;;;;;22.00;61.60;;;;;;4814505;55;20402;-27
2023/04/19 10:27:38;;;;;;;;;;;22.10;61.70;;;;;;4769029;55;20458;-25
2023/04/19 10:32:39;;;;;;;;;;;22.10;61.60;;;;;;4800500;55;20116;-27
2023/04/19 10:37:43;;;;;;;;;;;22.10;61.50;;;;;;4788101;55;20303;-24
2023/04/19 10:43:02;;;;;;;;;;;22.10;61.40;;;;;;4769915;55;20095;-22
2023/04/19 10:48:06;;;;;;;;;;;22.10;61.50;;;;;;4745389;55;20352;-26
2023/04/19 10:53:25;;;;;;;;;;;22.10;61.70;;;;;;4763009;55;20326;-28
2023/04/19 10:58:28;;;;;;;;;;;22.10;61.20;;;;;;4743937;58;20088;-29
2023/04/19 11:07:00;;;;;;;;;;;22.10;61.10;;;;;;4794567;55;20068;-26
2023/04/19 11:12:02;;;;;;;;;;;22.00;60.90;;;;;;4752995;55;20073;-26
2023/04/19 11:17:15;;;;;;;;;;;22.00;60.90;;;;;;4746064;58;20112;-25
2023/04/19 11:22:15;;;;;;;;;;;22.00;60.70;;;;;;4806113;55;20072;-27
2023/04/19 11:27:16;;;;;;;;;;;22.00;60.60;;;;;;4747215;55;20113;-26
2023/04/19 11:32:19;;;;;;;;;;;22.00;60.50;;;;;;4764761;55;20124;-28
2023/04/19 11:37:20;;;;;;;;;;;22.00;60.40;;;;;;4745219;58;20120;-29
2023/04/19 11:42:21;;;;;;;;;;;22.00;60.40;;;;;;4743989;58;20900;-27
2023/04/19 11:47:22;;;;;;;;;;;22.00;61.10;;;;;;4782943;55;20168;-29
2023/04/19 11:52:23;;;;;;;;;;;22.00;61.30;;;;;;4743447;58;20190;-26
2023/04/19 11:57:28;;;;;;;;;;;22.00;61.40;;;;;;4744882;55;20120;-27
2023/04/19 12:02:29;;;;;;;;;;;22.10;62.20;;;;;;4770963;55;20134;-25
2023/04/19 12:07:29;;;;;;;;;;;22.10;61.60;;;;;;4751642;55;20063;-26
2023/04/19 12:12:30;;;;;;;;;;;22.00;61.70;;;;;;4770497;55;20088;-27
2023/04/19 12:17:31;;;;;;;;;;;22.00;61.70;;;;;;4768534;55;20291;-26
2023/04/19 12:22:32;;;;;;;;;;;22.00;61.70;;;;;;4778704;55;20064;-25
2023/04/19 12:27:32;;;;;;;;;;;22.10;61.90;;;;;;4753422;55;20124;-25
2023/04/19 12:32:33;;;;;;;;;;;22.10;61.80;;;;;;4758194;55;20155;-28
2023/04/19 12:37:35;;;;;;;;;;;22.10;61.80;;;;;;4750672;55;20060;-24
2023/04/19 12:42:36;;;;;;;;;;;22.10;61.80;;;;;;4766558;55;20350;-23
2023/04/19 12:47:36;;;;;;;;;;;22.10;61.70;;;;;;4759154;55;20072;-29
2023/04/19 12:52:37;;;;;;;;;;;22.10;61.90;;;;;;4803721;55;20338;-30
2023/04/19 12:57:38;;;;;;;;;;;22.10;61.80;;;;;;4746114;58;20084;-33
2023/04/19 13:02:38;;;;;;;;;;;22.00;61.70;;;;;;4744686;58;20116;-30
2023/04/19 13:07:40;;;;;;;;;;;22.00;61.60;;;;;;4752149;55;20080;-28
2023/04/19 13:12:41;;;;;;;;;;;22.00;61.70;;;;;;4764095;55;20330;-28
2023/04/19 13:17:44;;;;;;;;;;;22.00;61.60;;;;;;4746711;55;20112;-29
2023/04/19 13:22:45;;;;;;;;;;;22.00;61.60;;;;;;4746629;58;20290;-31
2023/04/19 13:27:46;;;;;;;;;;;21.90;61.50;;;;;;4754822;55;20069;-27
2023/04/19 13:32:46;;;;;;;;;;;21.90;61.40;;;;;;4759885;55;20093;-30
2023/04/19 13:37:47;;;;;;;;;;;21.90;61.40;;;;;;4746262;58;20068;-27
2023/04/19 13:42:48;;;;;;;;;;;21.90;61.30;;;;;;4746337;55;20084;-28
2023/04/19 13:47:48;;;;;;;;;;;21.90;61.30;;;;;;4798242;55;20370;-29
2023/04/19 13:52:49;;;;;;;;;;;21.90;61.20;;;;;;4754659;55;20124;-28
2023/04/19 13:57:49;;;;;;;;;;;21.90;61.20;;;;;;4745955;58;20141;-27
2023/04/19 14:02:50;;;;;;;;;;;21.90;61.10;;;;;;4839988;55;20369;-28
2023/04/19 14:07:51;;;;;;;;;;;21.80;61.00;;;;;;4745904;58;20259;-28
2023/04/19 14:12:52;;;;;;;;;;;21.80;61.00;;;;;;4775230;55;20486;-27
2023/04/19 14:17:52;;;;;;;;;;;21.80;60.90;;;;;;4796541;55;20108;-34
2023/04/19 14:22:55;;;;;;;;;;;21.80;60.90;;;;;;4749985;55;20338;-31
2023/04/19 14:27:55;;;;;;;;;;;21.80;60.80;;;;;;4745938;55;20952;-29
2023/04/19 14:32:56;;;;;;;;;;;21.80;60.80;;;;;;4774366;55;20327;-28
2023/04/19 14:37:56;;;;;;;;;;;21.80;61.40;;;;;;4790755;55;20063;-29
2023/04/19 14:42:57;;;;;;;;;;;21.80;60.70;;;;;;4746366;58;20073;-30
2023/04/19 14:47:58;;;;;;;;;;;21.80;60.70;;;;;;4745864;57;20354;-29
2023/04/19 14:52:58;;;;;;;;;;;21.80;60.70;;;;;;4802916;55;20129;-29
2023/04/19 14:57:59;;;;;;;;;;;21.80;60.60;;;;;;4746486;55;20141;-29
2023/04/19 15:03:00;;;;;;;;;;;21.80;60.60;;;;;;4801804;55;20080;-27
2023/04/19 15:08:01;;;;;;;;;;;21.80;60.60;;;;;;4745711;58;20104;-30
2023/04/19 15:13:01;;;;;;;;;;;21.80;60.60;;;;;;4796578;55;20069;-30
2023/04/19 15:18:04;;;;;;;;;;;21.80;60.50;;;;;;4764336;55;20466;-29
2023/04/19 15:23:05;;;;;;;;;;;21.80;60.50;;;;;;4775865;55;20124;-26
2023/04/19 15:28:06;;;;;;;;;;;21.80;60.50;;;;;;4870175;55;20064;-27
2023/04/19 15:33:07;;;;;;;;;;;21.80;60.90;;;;;;4746053;58;20322;-27
2023/04/19 15:38:08;;;;;;;;;;;21.80;60.40;;;;;;4746588;58;20323;-27
2023/04/19 15:43:08;;;;;;;;;;;21.80;60.50;;;;;;4786424;55;20056;-28
2023/04/19 15:48:10;;;;;;;;;;;21.80;60.40;;;;;;4801573;55;20406;-29
2023/04/19 15:53:11;;;;;;;;;;;21.80;60.30;;;;;;4765502;55;20060;-28
2023/04/19 15:58:12;;;;;;;;;;;21.80;60.40;;;;;;4929707;55;20112;-29
2023/04/19 16:03:14;;;;;;;;;;;21.80;60.30;;;;;;4746374;58;20346;-28
2023/04/19 16:08:18;;;;;;;;;;;21.70;60.20;;;;;;4745229;58;20259;-27
2023/04/19 16:13:18;;;;;;;;;;;21.70;60.20;;;;;;4747208;55;20298;-31
2023/04/19 16:18:19;;;;;;;;;;;21.80;60.20;;;;;;4746131;58;20116;-29
2023/04/19 16:23:20;;;;;;;;;;;21.80;60.20;;;;;;4782718;55;20374;-27
2023/04/19 16:28:20;;;;;;;;;;;21.70;60.10;;;;;;4767195;55;20068;-30
2023/04/19 16:33:21;;;;;;;;;;;21.70;60.10;;;;;;4764609;55;20060;-30
2023/04/19 16:38:22;;;;;;;;;;;21.70;60.10;;;;;;4837984;55;20069;-26
2023/04/19 16:43:23;;;;;;;;;;;21.70;60.10;;;;;;4860989;55;20081;-26
2023/04/19 16:48:23;;;;;;;;;;;21.70;60.00;;;;;;4819981;55;20061;-27
2023/04/19 16:53:24;;;;;;;;;;;21.70;60.00;;;;;;4746064;58;20084;-28
2023/04/19 16:58:25;;;;;;;;;;;21.70;60.00;;;;;;4768895;55;20343;-29
2023/04/19 17:03:29;;;;;;;;;;;21.70;60.00;;;;;;4841080;55;20299;-34
2023/04/19 17:08:30;;;;;;;;;;;21.70;60.00;;;;;;4817723;55;20283;-28
2023/04/19 17:13:33;;;;;;;;;;;21.70;59.90;;;;;;4746612;58;20105;-29
2023/04/19 17:18:34;;;;;;;;;;;21.70;59.90;;;;;;4850726;55;20175;-29
2023/04/19 17:23:34;;;;;;;;;;;21.70;59.90;;;;;;4880627;55;20521;-28
2023/04/19 17:28:36;;;;;;;;;;;21.70;59.90;;;;;;4902202;55;20247;-26
2023/04/19 17:33:37;;;;;;;;;;;21.70;59.90;;;;;;4760297;55;20065;-31
2023/04/19 17:38:38;;;;;;;;;;;21.70;59.90;;;;;;4746465;58;20318;-29
2023/04/19 17:43:38;;;;;;;;;;;21.70;59.90;;;;;;4765421;55;20128;-28
2023/04/19 17:48:39;;;;;;;;;;;21.70;59.40;;;;;;4750933;55;20342;-28
2023/04/19 17:53:40;;;;;;;;;;;21.80;59.90;;;;;;4746417;58;20083;-31
2023/04/19 17:58:40;;;;;;;;;;;21.80;59.90;;;;;;4848662;55;20077;-30
2023/04/19 18:03:41;;;;;;;;;;;21.70;59.90;;;;;;4746880;55;20165;-28
2023/04/19 18:08:45;;;;;;;;;;;21.80;59.80;;;;;;4764637;55;20053;-25
2023/04/19 18:13:45;;;;;;;;;;;21.70;59.80;;;;;;4769310;55;20124;-28
2023/04/19 18:18:46;;;;;;;;;;;21.70;59.80;;;;;;4746384;58;20121;-31
2023/04/19 18:23:47;;;;;;;;;;;21.70;59.80;;;;;;4747843;55;20128;-31
2023/04/19 18:28:47;;;;;;;;;;;21.70;59.80;;;;;;4745853;58;20072;-27
2023/04/19 18:33:48;;;;;;;;;;;21.70;59.80;;;;;;4750649;55;20112;-30
2023/04/19 18:38:48;;;;;;;;;;;21.70;59.80;;;;;;4746423;58;20060;-28
2023/04/19 18:43:49;;;;;;;;;;;21.70;59.70;;;;;;4746736;58;20347;-28
2023/04/19 18:48:51;;;;;;;;;;;21.70;59.80;;;;;;4802017;55;20061;-29
2023/04/19 18:53:51;;;;;;;;;;;21.70;59.70;;;;;;4754287;55;20068;-28
2023/04/19 18:58:55;;;;;;;;;;;21.70;59.70;;;;;;4749745;55;20057;-26
2023/04/19 19:03:55;;;;;;;;;;;21.70;59.70;;;;;;4746201;58;20065;-27
2023/04/19 19:08:56;;;;;;;;;;;21.70;59.70;;;;;;4831487;55;20064;-29
2023/04/19 19:13:56;;;;;;;;;;;21.70;59.70;;;;;;4795062;55;20060;-27
2023/04/19 19:18:57;;;;;;;;;;;21.70;59.70;;;;;;4746741;58;20064;-28
2023/04/19 19:24:03;;;;;;;;;;;21.70;59.60;;;;;;4815260;55;20096;-31
2023/04/19 19:29:04;;;;;;;;;;;21.70;59.70;;;;;;4788014;55;20081;-29
2023/04/19 19:34:05;;;;;;;;;;;21.70;59.60;;;;;;4745977;55;20151;-29
2023/04/19 19:39:06;;;;;;;;;;;21.70;59.60;;;;;;4790687;55;20449;-27
2023/04/19 19:44:09;;;;;;;;;;;21.70;59.70;;;;;;4788294;55;20382;-29
2023/04/19 19:49:10;;;;;;;;;;;21.70;59.70;;;;;;4760037;55;20374;-28
2023/04/19 19:54:13;;;;;;;;;;;21.70;59.60;;;;;;4746359;58;20108;-31
2023/04/19 19:59:14;;;;;;;;;;;21.70;59.60;;;;;;4786810;55;20100;-28
2023/04/19 20:04:14;;;;;;;;;;;21.70;59.50;;;;;;4779278;55;20066;-29
2023/04/19 20:09:15;;;;;;;;;;;21.70;59.50;;;;;;4775102;55;20314;-29
2023/04/19 20:14:15;;;;;;;;;;;21.70;59.50;;;;;;4786321;55;20164;-27
2023/04/19 20:19:16;;;;;;;;;;;21.70;59.50;;;;;;4839507;55;20120;-26
2023/04/19 20:24:17;;;;;;;;;;;21.70;59.40;;;;;;4778623;55;20200;-28
2023/04/19 20:29:18;;;;;;;;;;;21.70;59.40;;;;;;4745732;58;20120;-28
2023/04/19 20:34:18;;;;;;;;;;;21.70;59.40;;;;;;4747291;55;20076;-28
2023/04/19 20:39:19;;;;;;;;;;;21.70;59.40;;;;;;4875488;55;20425;-31
2023/04/19 20:44:21;;;;;;;;;;;21.70;59.40;;;;;;4756932;55;20560;-25
2023/04/19 20:49:22;;;;;;;;;;;21.70;59.40;;;;;;4764175;55;20397;-28
2023/04/19 20:54:22;;;;;;;;;;;21.70;59.30;;;;;;4789213;55;20476;-28
2023/04/19 20:59:23;;;;;;;;;;;21.70;59.40;;;;;;4804411;55;20945;-28
2023/04/19 21:04:24;;;;;;;;;;;21.70;59.30;;;;;;4757101;55;20068;-28
2023/04/19 21:09:24;;;;;;;;;;;21.70;59.30;;;;;;4796918;55;20084;-26
2023/04/19 21:14:25;;;;;;;;;;;21.70;59.30;;;;;;4761940;55;20117;-26
2023/04/19 21:19:25;;;;;;;;;;;21.70;59.30;;;;;;4746546;58;20113;-28
2023/04/19 21:24:26;;;;;;;;;;;21.70;59.20;;;;;;4768378;55;20065;-26
2023/04/19 21:29:27;;;;;;;;;;;21.70;59.20;;;;;;4755253;55;20076;-28
2023/04/19 21:34:30;;;;;;;;;;;21.70;59.20;;;;;;4745427;58;20108;-24
2023/04/19 21:39:31;;;;;;;;;;;21.70;59.20;;;;;;4769283;55;20097;-29
2023/04/19 21:44:32;;;;;;;;;;;21.70;59.20;;;;;;4765326;55;20120;-31
2023/04/19 21:49:32;;;;;;;;;;;21.70;59.10;;;;;;4745530;58;20072;-29
2023/04/19 21:54:33;;;;;;;;;;;21.70;59.10;;;;;;4815686;55;20080;-28
2023/04/19 21:59:34;;;;;;;;;;;21.70;59.10;;;;;;4746400;58;20168;-27
2023/04/19 22:04:35;;;;;;;;;;;21.60;59.00;;;;;;4746272;58;20104;-28
2023/04/19 22:09:36;;;;;;;;;;;21.70;59.00;;;;;;4745454;56;20307;-31
2023/04/19 22:14:39;;;;;;;;;;;21.70;59.00;;;;;;4746222;58;20092;-27
2023/04/19 22:19:40;;;;;;;;;;;21.70;59.00;;;;;;4808214;55;20108;-28
2023/04/19 22:24:41;;;;;;;;;;;21.70;59.00;;;;;;4783078;55;20160;-29
2023/04/19 22:29:41;;;;;;;;;;;21.70;59.00;;;;;;4792480;55;20061;-27
2023/04/19 22:34:42;;;;;;;;;;;21.70;59.00;;;;;;4769457;55;20147;-28
2023/04/19 22:39:42;;;;;;;;;;;21.70;59.00;;;;;;4778620;55;20323;-28
2023/04/19 22:44:46;;;;;;;;;;;21.70;58.90;;;;;;4762292;55;20132;-28
2023/04/19 22:49:48;;;;;;;;;;;21.70;59.00;;;;;;4756447;55;20079;-28
2023/04/19 22:54:49;;;;;;;;;;;21.70;58.90;;;;;;4765810;55;20292;-29
2023/04/19 22:59:49;;;;;;;;;;;21.70;58.90;;;;;;4801087;55;20144;-32
2023/04/19 23:04:50;;;;;;;;;;;21.70;58.90;;;;;;4746593;58;20100;-29
2023/04/19 23:09:53;;;;;;;;;;;21.70;58.80;;;;;;4745864;58;20323;-28
2023/04/19 23:14:54;;;;;;;;;;;21.70;58.80;;;;;;4831836;55;20546;-30
2023/04/19 23:19:54;;;;;;;;;;;21.70;58.80;;;;;;4802091;55;20065;-29
2023/04/19 23:24:55;;;;;;;;;;;21.70;58.80;;;;;;4803917;55;20283;-31
2023/04/19 23:29:56;;;;;;;;;;;21.70;58.80;;;;;;4817347;55;20124;-27
2023/04/19 23:34:56;;;;;;;;;;;21.70;58.70;;;;;;4771006;55;20072;-29
2023/04/19 23:39:57;;;;;;;;;;;21.60;58.70;;;;;;4768396;55;20320;-27
2023/04/19 23:44:58;;;;;;;;;;;21.70;58.70;;;;;;4746755;58;20504;-27
2023/04/19 23:49:58;;;;;;;;;;;21.60;59.30;;;;;;4811098;55;20072;-28
2023/04/19 23:54:59;;;;;;;;;;;21.60;58.60;;;;;;4746634;58;20108;-29
